ESNK/KRF METAR and TAF weather

Enter ICAO airport designator
Station Type Date Time Source
ESNK METAR 2018/07/21 22:50 UTC NOAA

ESNK 212250Z AUTO 28003KT 9999 FEW066/// BKN110/// OVC130/// 19/14 Q1004


Station Type Date Time Source
ESNK Decoded METAR 2018/07/21 22:50 UTC NOAA

Kramfors Flygplats, Sweden (ESNK) 63-03N 017-46E 19M
Jul 21, 2018 - 06:50 PM EDT / 2018.07.21 2250 UTC
Wind: from the W (280 degrees) at 3 MPH (3 KT):0
Visibility: greater than 7 mile(s):0
Sky conditions: overcast
Temperature: 66 F (19 C)
Dew Point: 57 F (14 C)
Relative Humidity: 72%
Pressure (altimeter): 29.65 in. Hg (1004 hPa)
ob: ESNK 212250Z AUTO 28003KT 9999 FEW066/// BKN110/// OVC130/// 19/14 Q1004
cycle: 23

Station Type Date Time Source
ESNK TAF 2017/12/15 06:00 UTC NOAA

TAF
AMD ESNK 150654Z 1506/1521 35005KT 6000 -SN BKN016
TEMPO 1506/1521 2000 SN SG VV009


Example: see airport list